Terminal Aerodrome Forecast
Issued by NWS

Home | Current Version | Previous Version | Text Only | Print | Product List | Glossary On
Versions: 1 2 3 4 5 6 7 8 9 10 11 12 13 14 15 16 17 18 19 20 21 22 23 24 25 26
000
FTUS45 KGJT 192342
TAFCNY
TAF
KCNY 192342Z 2000/2024 17004KT P6SM SCT110 BKN200
     FM200300 19008KT P6SM SCT110 OVC200
     FM201400 15011G19KT P6SM BKN080 OVC090
     FM201900 19018KT P6SM BKN035 OVC070
     FM202000 19017KT P6SM BKN030 OVC060
     FM202300 21014KT P6SM BKN035 BKN040=

USA.gov is the U.S. government's official web portal to all federal, state and local government web resources and services.